Time;durP1;ratioP1;P1;durP2;ratioP2;P2;SDS_P1;SDS_P2;PMS_P1;PMS_P2;Temp;Humidity;BMP_temperature;BMP_pressure;BME280_temperature;BME280_humidity;BME280_pressure;Samples;Min_cycle;Max_cycle;Signal;HPM_P1;HPM_P2
2022/05/18 00:00:29;;;;;;;7.95;5.70;;;18.50;99.90;;;;;;5051484;28;20040;-81
2022/05/18 00:03:03;;;;;;;10.60;5.93;;;18.50;99.90;;;;;;5031047;28;20041;-81
2022/05/18 00:05:29;;;;;;;8.30;6.13;;;18.40;99.90;;;;;;5048620;28;21851;-81
2022/05/18 00:07:55;;;;;;;10.55;5.72;;;18.40;99.90;;;;;;5047678;28;20033;-82
2022/05/18 00:10:20;;;;;;;7.63;5.90;;;18.30;99.90;;;;;;5047357;28;20025;-82
2022/05/18 00:12:48;;;;;;;7.50;5.80;;;18.30;99.90;;;;;;5032366;28;20041;-80
2022/05/18 00:15:17;;;;;;;8.48;5.50;;;18.20;99.90;;;;;;5047630;28;20414;-82
2022/05/18 00:17:43;;;;;;;8.85;5.32;;;18.20;99.90;;;;;;5046979;28;20097;-81
2022/05/18 00:20:09;;;;;;;10.10;6.05;;;18.10;99.90;;;;;;5046930;28;20045;-81
2022/05/18 00:22:47;;;;;;;10.00;6.25;;;18.00;99.90;;;;;;5061092;28;20074;-81
2022/05/18 00:25:13;;;;;;;8.43;5.50;;;17.90;99.90;;;;;;5047085;28;20676;-81
2022/05/18 00:27:38;;;;;;;8.88;5.88;;;17.90;99.90;;;;;;5063630;28;20037;-81
2022/05/18 00:30:05;;;;;;;9.02;6.07;;;17.90;99.90;;;;;;5046176;28;20090;-82
2022/05/18 00:32:31;;;;;;;8.80;6.00;;;17.90;99.90;;;;;;5045247;28;20582;-81
2022/05/18 00:34:56;;;;;;;9.70;5.70;;;17.80;99.90;;;;;;5046737;28;20029;-81
2022/05/18 00:37:22;;;;;;;9.57;6.15;;;17.80;99.90;;;;;;5046949;28;20037;-80
2022/05/18 00:39:47;;;;;;;8.90;6.50;;;17.80;99.90;;;;;;5047020;28;20037;-81
2022/05/18 00:42:21;;;;;;;10.82;6.20;;;17.80;99.90;;;;;;5030561;28;20542;-80
2022/05/18 00:44:47;;;;;;;9.80;5.82;;;17.70;99.90;;;;;;5045341;28;20037;-82
2022/05/18 00:47:13;;;;;;;7.95;5.78;;;17.70;99.90;;;;;;5046763;28;20159;-81
2022/05/18 00:49:40;;;;;;;8.18;5.80;;;17.60;99.90;;;;;;5048104;28;20033;-81
2022/05/18 00:52:07;;;;;;;8.55;6.07;;;17.60;99.90;;;;;;5027135;28;20037;-82
2022/05/18 00:54:35;;;;;;;7.70;6.18;;;17.60;99.90;;;;;;5046067;28;20029;-81
2022/05/18 00:57:07;;;;;;;10.18;6.07;;;17.60;99.90;;;;;;5048221;28;20483;-81
2022/05/18 00:59:44;;;;;;;9.20;6.15;;;17.50;99.90;;;;;;5047855;28;20044;-82
2022/05/18 01:02:10;;;;;;;6.68;5.70;;;17.50;99.90;;;;;;5047641;28;20037;-80
2022/05/18 01:04:39;;;;;;;9.20;6.20;;;17.50;99.90;;;;;;5047559;28;20151;-81
2022/05/18 01:07:10;;;;;;;7.32;5.97;;;17.40;99.90;;;;;;5047976;28;20063;-81
2022/05/18 01:09:42;;;;;;;10.15;6.20;;;17.40;99.90;;;;;;5046581;28;20037;-80
2022/05/18 01:12:10;;;;;;;9.00;6.22;;;17.40;99.90;;;;;;5047053;28;20120;-81
2022/05/18 01:14:48;;;;;;;7.75;6.10;;;17.30;99.90;;;;;;5045549;28;20487;-80
2022/05/18 01:17:18;;;;;;;9.20;6.35;;;17.30;99.90;;;;;;5045987;28;20048;-80
2022/05/18 01:19:49;;;;;;;9.05;6.18;;;17.30;99.90;;;;;;5045214;28;20147;-80
2022/05/18 01:22:40;;;;;;;8.57;6.43;;;17.20;99.90;;;;;;5045057;28;20044;-80
2022/05/18 01:25:12;;;;;;;9.60;6.00;;;17.20;99.90;;;;;;5019093;28;20045;-80
2022/05/18 01:27:37;;;;;;;9.73;6.45;;;17.20;99.90;;;;;;5062303;28;20033;-80
2022/05/18 01:30:05;;;;;;;8.60;6.25;;;17.10;99.90;;;;;;5043453;28;20458;-80
2022/05/18 01:32:44;;;;;;;8.70;6.20;;;17.10;99.90;;;;;;5044678;28;20116;-80
2022/05/18 01:35:12;;;;;;;6.65;5.78;;;17.10;99.90;;;;;;5060258;28;20048;-80
2022/05/18 01:37:38;;;;;;;10.38;6.32;;;17.00;99.90;;;;;;5062250;28;20119;-81
2022/05/18 01:40:09;;;;;;;8.52;6.00;;;17.00;99.90;;;;;;5047280;28;20473;-80
2022/05/18 01:42:46;;;;;;;8.10;6.20;;;17.00;99.90;;;;;;5060412;28;20075;-81
2022/05/18 01:45:11;;;;;;;8.38;5.90;;;17.00;99.90;;;;;;5045263;28;20052;-80
2022/05/18 01:47:39;;;;;;;8.98;5.97;;;17.00;99.90;;;;;;5045666;28;20037;-81
2022/05/18 01:50:09;;;;;;;9.05;6.28;;;16.90;99.90;;;;;;5045282;28;20458;-81
2022/05/18 01:52:35;;;;;;;8.02;6.03;;;17.00;99.90;;;;;;5050815;28;20045;-81
2022/05/18 01:55:02;;;;;;;9.52;5.95;;;16.90;99.90;;;;;;5044790;28;20032;-81
2022/05/18 01:57:27;;;;;;;9.00;5.70;;;16.90;99.90;;;;;;5047049;28;20554;-80
2022/05/18 01:59:53;;;;;;;9.45;6.47;;;16.90;99.90;;;;;;5050972;28;20120;-81
2022/05/18 02:02:19;;;;;;;8.13;5.55;;;16.80;99.90;;;;;;5047021;28;20135;-81
2022/05/18 02:04:44;;;;;;;8.00;5.55;;;16.80;99.90;;;;;;5058415;28;20045;-81
2022/05/18 02:07:11;;;;;;;8.38;5.72;;;16.80;99.90;;;;;;5044521;28;20535;-81
2022/05/18 02:09:38;;;;;;;7.85;5.60;;;16.80;99.90;;;;;;5060772;28;20060;-81
2022/05/18 02:12:07;;;;;;;9.93;6.15;;;16.80;99.90;;;;;;5041435;28;20060;-81
2022/05/18 02:14:33;;;;;;;6.82;5.28;;;16.70;99.90;;;;;;5043300;28;20029;-81
2022/05/18 02:16:58;;;;;;;8.60;5.75;;;16.70;99.90;;;;;;5029174;28;20406;-81
2022/05/18 02:19:24;;;;;;;7.93;5.15;;;16.70;99.90;;;;;;5045208;28;20040;-80
2022/05/18 02:21:50;;;;;;;8.77;5.35;;;16.70;99.90;;;;;;5044928;28;20557;-81
2022/05/18 02:24:16;;;;;;;8.27;5.88;;;16.70;99.90;;;;;;5044544;28;20041;-81
2022/05/18 02:26:42;;;;;;;8.25;5.70;;;16.70;99.90;;;;;;5044592;28;20033;-80
2022/05/18 02:29:08;;;;;;;7.18;5.80;;;16.70;99.90;;;;;;5044249;28;20044;-81
2022/05/18 02:31:34;;;;;;;8.88;5.28;;;16.70;99.90;;;;;;5057950;28;20040;-81
2022/05/18 02:33:59;;;;;;;9.07;5.95;;;16.60;99.90;;;;;;5044538;28;20074;-81
2022/05/18 02:36:26;;;;;;;6.97;5.55;;;16.60;99.90;;;;;;5045968;28;20037;-80
2022/05/18 02:38:52;;;;;;;9.90;5.43;;;16.60;99.90;;;;;;5042858;28;20147;-81
2022/05/18 02:41:19;;;;;;;7.20;5.32;;;16.60;99.90;;;;;;5043155;28;20060;-81
2022/05/18 02:43:44;;;;;;;7.93;5.78;;;16.60;99.90;;;;;;5042675;28;20041;-80
2022/05/18 02:46:11;;;;;;;10.98;5.50;;;16.60;99.90;;;;;;5028251;28;20048;-80
2022/05/18 02:48:37;;;;;;;8.73;6.07;;;16.60;99.90;;;;;;5045676;28;20067;-81
2022/05/18 02:51:05;;;;;;;8.70;5.95;;;16.50;99.90;;;;;;5043308;28;20044;-82
2022/05/18 02:53:30;;;;;;;8.02;5.63;;;16.50;99.90;;;;;;5046224;28;20048;-80
2022/05/18 02:56:08;;;;;;;8.98;5.95;;;16.50;99.90;;;;;;5049276;28;20482;-81
2022/05/18 02:58:39;;;;;;;7.47;4.97;;;16.50;99.90;;;;;;5029857;28;20080;-81
2022/05/18 03:01:19;;;;;;;8.15;5.32;;;16.50;99.90;;;;;;5028881;28;20562;-81
2022/05/18 03:03:45;;;;;;;8.18;5.28;;;16.40;99.90;;;;;;5043830;28;20417;-81
2022/05/18 03:06:13;;;;;;;7.03;5.30;;;16.40;99.90;;;;;;5045355;28;20384;-81
2022/05/18 03:08:40;;;;;;;7.43;5.47;;;16.30;99.90;;;;;;5058182;28;20164;-81
2022/05/18 03:11:07;;;;;;;9.80;5.47;;;16.30;99.90;;;;;;5043203;28;20056;-81
2022/05/18 03:13:33;;;;;;;11.52;5.57;;;16.30;99.90;;;;;;5045131;28;20033;-82
2022/05/18 03:15:58;;;;;;;6.82;5.72;;;16.30;99.90;;;;;;5043169;28;20092;-81
2022/05/18 03:18:24;;;;;;;8.90;5.25;;;16.20;99.90;;;;;;5044272;28;20099;-81
2022/05/18 03:23:34;;;;;;;;;;;16.10;99.90;;;;;;5060514;28;20445;-81
2022/05/18 03:26:16;;;;;;;7.00;5.18;;;16.00;99.90;;;;;;5041352;28;19916;-81
2022/05/18 03:28:43;;;;;;;7.38;5.40;;;16.00;99.90;;;;;;5044941;28;20045;-81
2022/05/18 03:31:10;;;;;;;9.10;5.88;;;15.90;99.90;;;;;;5044768;28;20139;-82
2022/05/18 03:33:36;;;;;;;7.82;5.88;;;15.80;99.90;;;;;;5027751;28;20029;-81
2022/05/18 03:36:03;;;;;;;8.93;6.30;;;15.70;99.90;;;;;;5044637;28;20041;-81
2022/05/18 03:38:29;;;;;;;7.20;5.88;;;15.70;99.90;;;;;;5044197;28;20048;-81
2022/05/18 03:40:55;;;;;;;8.52;5.63;;;15.60;99.90;;;;;;5043959;28;20040;-81
2022/05/18 03:43:21;;;;;;;10.93;5.82;;;15.60;99.90;;;;;;5033075;28;20132;-81
2022/05/18 03:45:47;;;;;;;11.23;6.00;;;15.60;99.90;;;;;;5047319;28;20105;-81
2022/05/18 03:48:14;;;;;;;9.38;5.78;;;15.60;99.90;;;;;;5048383;28;20029;-81
2022/05/18 03:50:43;;;;;;;21.67;6.10;;;15.50;99.90;;;;;;5032119;28;20687;-81
2022/05/18 03:53:09;;;;;;;12.13;6.32;;;15.50;99.90;;;;;;5048607;28;20029;-81
2022/05/18 03:55:38;;;;;;;10.23;6.03;;;15.50;99.90;;;;;;5046947;28;20132;-81
2022/05/18 03:58:04;;;;;;;10.35;6.03;;;15.50;99.90;;;;;;5052172;28;20064;-81
2022/05/18 04:00:31;;;;;;;11.07;5.65;;;15.50;99.90;;;;;;5051146;28;20045;-80
2022/05/18 04:02:57;;;;;;;9.63;6.30;;;15.60;99.90;;;;;;5030996;28;20032;-81
2022/05/18 04:05:23;;;;;;;8.27;6.43;;;15.60;99.90;;;;;;5047149;28;20041;-80
2022/05/18 04:07:50;;;;;;;10.07;6.40;;;15.60;99.90;;;;;;5048060;28;20045;-81
2022/05/18 04:10:16;;;;;;;10.18;6.25;;;15.70;99.90;;;;;;5046605;28;20055;-81
2022/05/18 04:12:43;;;;;;;9.52;6.40;;;15.60;99.90;;;;;;5047881;28;20055;-81
2022/05/18 04:15:10;;;;;;;8.13;6.47;;;15.70;99.90;;;;;;5047795;28;20049;-81
2022/05/18 04:17:36;;;;;;;8.82;6.28;;;15.70;99.90;;;;;;5047135;28;20041;-82
2022/05/18 04:20:06;;;;;;;10.40;6.65;;;15.80;99.90;;;;;;5030149;28;20040;-81
2022/05/18 04:22:32;;;;;;;7.22;5.50;;;15.80;99.90;;;;;;5046862;28;20056;-82
2022/05/18 04:25:01;;;;;;;9.00;6.53;;;15.90;99.90;;;;;;5044402;28;20102;-81
2022/05/18 04:27:28;;;;;;;9.07;6.65;;;16.00;99.90;;;;;;5044980;28;20633;-82
2022/05/18 04:29:54;;;;;;;7.50;5.65;;;16.00;99.90;;;;;;5061321;28;20059;-81
2022/05/18 04:32:21;;;;;;;8.55;6.15;;;16.00;99.90;;;;;;5046038;28;20033;-81
2022/05/18 04:34:48;;;;;;;7.13;5.97;;;16.10;99.90;;;;;;5046579;28;20040;-82
2022/05/18 04:37:14;;;;;;;9.63;6.10;;;16.20;99.90;;;;;;5030489;28;20041;-82
2022/05/18 04:39:40;;;;;;;9.80;5.95;;;16.20;99.90;;;;;;5046147;28;20062;-81
2022/05/18 04:42:05;;;;;;;11.20;6.00;;;16.30;99.90;;;;;;5029337;28;20036;-81
2022/05/18 04:44:31;;;;;;;10.13;6.38;;;16.40;99.90;;;;;;5046140;28;20033;-81
2022/05/18 04:46:58;;;;;;;8.98;6.45;;;16.40;99.90;;;;;;5046042;28;20134;-81
2022/05/18 04:49:26;;;;;;;8.75;6.38;;;16.50;99.90;;;;;;5047904;28;20044;-81
2022/05/18 04:51:52;;;;;;;12.00;6.45;;;16.50;99.90;;;;;;5050911;28;20025;-82
2022/05/18 04:54:17;;;;;;;9.82;6.60;;;16.60;99.90;;;;;;5047762;28;20082;-81
2022/05/18 04:56:43;;;;;;;8.13;6.47;;;16.60;99.90;;;;;;5051035;28;20045;-81
2022/05/18 04:59:09;;;;;;;9.32;6.78;;;16.70;99.90;;;;;;5048768;28;20045;-81
2022/05/18 05:01:34;;;;;;;8.65;6.47;;;16.80;99.90;;;;;;5050172;28;20102;-81
2022/05/18 05:04:01;;;;;;;9.68;6.80;;;16.90;99.90;;;;;;5050000;28;20041;-81
2022/05/18 05:06:27;;;;;;;10.77;6.57;;;17.00;99.90;;;;;;5049488;28;20045;-81
2022/05/18 05:08:52;;;;;;;11.15;6.47;;;17.10;99.90;;;;;;5051131;28;20438;-81
2022/05/18 05:11:18;;;;;;;8.60;6.18;;;17.20;99.90;;;;;;5050652;28;20515;-81
2022/05/18 05:13:44;;;;;;;7.88;6.03;;;17.30;99.90;;;;;;5046150;28;20506;-82
2022/05/18 05:16:11;;;;;;;10.45;7.03;;;17.40;99.90;;;;;;5049785;28;20040;-81
2022/05/18 05:18:38;;;;;;;9.82;6.85;;;17.50;99.90;;;;;;5050172;28;20047;-82
2022/05/18 05:21:05;;;;;;;9.98;6.75;;;17.60;99.90;;;;;;5050386;28;20048;-82
2022/05/18 05:23:32;;;;;;;9.68;7.10;;;17.70;99.90;;;;;;5050263;28;20072;-82
2022/05/18 05:25:59;;;;;;;10.50;7.00;;;17.70;99.90;;;;;;5049624;28;20040;-82
2022/05/18 05:28:25;;;;;;;9.57;6.55;;;17.80;99.90;;;;;;5048243;28;20048;-82
2022/05/18 05:30:50;;;;;;;8.80;7.13;;;17.90;99.90;;;;;;5051228;28;20431;-81
2022/05/18 05:33:16;;;;;;;9.13;7.13;;;17.90;99.90;;;;;;5050575;28;20061;-81
2022/05/18 05:35:42;;;;;;;10.93;7.30;;;18.00;99.90;;;;;;5031978;28;20033;-82
2022/05/18 05:38:09;;;;;;;12.68;7.25;;;18.00;99.90;;;;;;5049091;28;20082;-81
2022/05/18 05:40:35;;;;;;;11.15;7.80;;;18.10;99.90;;;;;;5031522;28;20043;-81
2022/05/18 05:43:08;;;;;;;10.82;7.38;;;18.20;99.90;;;;;;5050023;28;20111;-81
2022/05/18 05:45:34;;;;;;;9.85;7.55;;;18.20;99.90;;;;;;5048148;28;20111;-81
2022/05/18 05:48:01;;;;;;;10.95;7.47;;;18.30;99.90;;;;;;5060308;28;20041;-81
2022/05/18 05:50:27;;;;;;;15.25;8.43;;;18.30;99.90;;;;;;5032517;28;20033;-82
2022/05/18 05:52:53;;;;;;;15.30;8.05;;;18.40;99.90;;;;;;5044128;28;20037;-82
2022/05/18 05:55:19;;;;;;;12.35;8.13;;;18.50;99.90;;;;;;5049024;28;20376;-82
2022/05/18 05:57:45;;;;;;;11.88;7.82;;;18.60;99.90;;;;;;5030144;28;20043;-81
2022/05/18 06:00:11;;;;;;;11.32;8.55;;;18.70;99.90;;;;;;5061968;28;20037;-83
2022/05/18 06:02:37;;;;;;;11.68;8.05;;;18.80;99.90;;;;;;5046308;28;20044;-82
2022/05/18 06:05:03;;;;;;;16.75;8.30;;;18.90;99.90;;;;;;5045569;28;20406;-81
2022/05/18 06:07:30;;;;;;;13.82;7.53;;;19.10;99.90;;;;;;5047754;28;20059;-83
2022/05/18 06:09:55;;;;;;;11.25;8.23;;;19.20;99.90;;;;;;5048154;28;20123;-82
2022/05/18 06:12:22;;;;;;;12.50;8.30;;;19.40;99.90;;;;;;5048727;28;20168;-83
2022/05/18 06:14:49;;;;;;;12.65;8.90;;;19.50;99.90;;;;;;5047994;28;20039;-83
2022/05/18 06:17:15;;;;;;;12.15;9.10;;;19.60;99.90;;;;;;5032885;28;20407;-83
2022/05/18 06:19:40;;;;;;;13.27;8.65;;;19.70;99.90;;;;;;5031843;28;20029;-84
2022/05/18 06:22:06;;;;;;;11.55;8.68;;;19.80;99.90;;;;;;5042812;28;20033;-83
2022/05/18 06:24:32;;;;;;;11.85;8.23;;;19.90;99.90;;;;;;5044315;28;20043;-83
2022/05/18 06:27:00;;;;;;;11.60;8.85;;;19.90;99.90;;;;;;5046866;28;20043;-83
2022/05/18 06:29:26;;;;;;;12.38;8.90;;;20.00;99.90;;;;;;5048773;28;20388;-84
2022/05/18 06:31:52;;;;;;;11.50;9.10;;;20.10;99.90;;;;;;5048831;28;20075;-83
2022/05/18 06:34:21;;;;;;;13.35;9.10;;;20.10;99.90;;;;;;5047513;28;20033;-83
2022/05/18 06:36:47;;;;;;;12.95;8.90;;;20.20;99.90;;;;;;5047987;28;20029;-84
2022/05/18 06:39:13;;;;;;;14.00;8.90;;;20.30;99.90;;;;;;5048999;28;20655;-83
2022/05/18 06:41:39;;;;;;;15.13;9.07;;;20.40;99.90;;;;;;5046085;28;20106;-83
2022/05/18 06:44:05;;;;;;;11.55;9.25;;;20.50;99.90;;;;;;5046577;28;20033;-84
2022/05/18 06:46:33;;;;;;;12.07;9.05;;;20.60;99.90;;;;;;5049455;28;20045;-83
2022/05/18 06:48:59;;;;;;;16.05;9.63;;;20.70;99.90;;;;;;5033173;28;20526;-83
2022/05/18 06:51:29;;;;;;;13.48;9.43;;;20.80;99.90;;;;;;5049999;28;20044;-83
2022/05/18 06:53:56;;;;;;;14.50;9.55;;;20.90;99.90;;;;;;5049280;28;20040;-82
2022/05/18 06:56:28;;;;;;;12.75;9.15;;;21.10;99.90;;;;;;5048900;28;20578;-83
2022/05/18 06:58:54;;;;;;;15.00;10.35;;;21.10;99.90;;;;;;5045581;28;20116;-83
2022/05/18 07:01:20;;;;;;;14.45;10.48;;;21.30;99.90;;;;;;5043351;28;20041;-84
2022/05/18 07:03:47;;;;;;;14.80;10.02;;;21.40;99.90;;;;;;5048703;28;20041;-83
2022/05/18 07:06:16;;;;;;;11.15;9.52;;;21.40;99.90;;;;;;5049604;28;20037;-83
2022/05/18 07:08:42;;;;;;;14.07;9.70;;;21.50;99.90;;;;;;5049590;28;20119;-83
2022/05/18 07:11:08;;;;;;;15.68;10.73;;;21.50;99.90;;;;;;5049326;28;20128;-85
2022/05/18 07:13:35;;;;;;;12.93;10.40;;;21.50;99.90;;;;;;5048113;28;20051;-83
2022/05/18 07:16:02;;;;;;;16.20;9.98;;;21.70;99.90;;;;;;5047272;28;20059;-83
2022/05/18 07:18:29;;;;;;;13.23;10.15;;;21.80;99.90;;;;;;5046445;28;20120;-83
2022/05/18 07:21:00;;;;;;;13.38;10.02;;;21.90;99.90;;;;;;5031067;28;20503;-83
2022/05/18 07:23:27;;;;;;;13.75;9.65;;;22.00;99.90;;;;;;5031786;28;20556;-83
2022/05/18 07:25:53;;;;;;;15.55;10.95;;;22.20;99.90;;;;;;5047264;28;20410;-84
2022/05/18 07:28:19;;;;;;;17.05;9.95;;;22.30;99.90;;;;;;5047201;28;20051;-82
2022/05/18 07:30:45;;;;;;;16.38;10.73;;;22.40;99.90;;;;;;5049114;28;20044;-82
2022/05/18 07:33:11;;;;;;;12.10;9.40;;;22.40;99.90;;;;;;5046856;28;20029;-83
2022/05/18 07:35:37;;;;;;;10.82;8.88;;;22.50;99.90;;;;;;5050590;28;20044;-83
2022/05/18 07:38:02;;;;;;;12.25;9.30;;;22.60;99.90;;;;;;5022712;28;20415;-83
2022/05/18 07:40:29;;;;;;;14.30;9.65;;;22.70;99.90;;;;;;5033105;28;20072;-83
2022/05/18 07:42:56;;;;;;;12.63;8.15;;;22.80;99.90;;;;;;5017272;28;20041;-83
2022/05/18 07:45:25;;;;;;;12.10;8.13;;;22.90;99.90;;;;;;5032742;28;20037;-83
2022/05/18 07:47:52;;;;;;;14.60;7.85;;;23.00;99.90;;;;;;5033350;28;20045;-83
2022/05/18 07:50:22;;;;;;;11.70;6.90;;;23.30;99.90;;;;;;5017543;28;20388;-83
2022/05/18 07:52:48;;;;;;;10.57;6.43;;;23.40;99.90;;;;;;5033271;28;20041;-83
2022/05/18 07:55:14;;;;;;;11.30;5.95;;;23.60;99.90;;;;;;5015918;28;20038;-83
2022/05/18 07:57:40;;;;;;;9.02;6.15;;;23.70;99.90;;;;;;5032973;28;20451;-83
2022/05/18 08:00:08;;;;;;;9.13;5.55;;;23.80;99.90;;;;;;5033478;28;20041;-83
2022/05/18 08:02:34;;;;;;;10.10;5.07;;;23.90;99.90;;;;;;5041895;28;20120;-83
2022/05/18 08:05:00;;;;;;;7.38;4.80;;;23.90;99.90;;;;;;5052243;28;20119;-84
2022/05/18 08:07:26;;;;;;;10.00;4.28;;;24.00;99.90;;;;;;5036208;28;20135;-83
2022/05/18 08:15:20;;;;;;;6.57;4.18;;;24.20;99.90;;;;;;5052516;28;20046;-84
2022/05/18 08:17:46;;;;;;;6.97;3.88;;;24.40;99.90;;;;;;5036253;28;20045;-83
2022/05/18 08:20:14;;;;;;;8.55;3.72;;;24.50;99.90;;;;;;5052769;28;20396;-83
2022/05/18 08:22:41;;;;;;;7.53;3.90;;;24.60;99.90;;;;;;5052857;28;20526;-83
2022/05/18 08:25:09;;;;;;;5.70;3.55;;;24.70;99.90;;;;;;5052551;28;20041;-83
2022/05/18 08:27:39;;;;;;;7.78;3.97;;;24.70;99.90;;;;;;5052437;28;20429;-84
2022/05/18 08:30:06;;;;;;;7.50;3.55;;;24.80;99.90;;;;;;5052819;28;20041;-83
2022/05/18 08:32:32;;;;;;;7.50;4.22;;;24.90;99.90;;;;;;5052609;28;20037;-83
2022/05/18 08:34:58;;;;;;;10.20;3.97;;;25.00;99.90;;;;;;5051980;28;20043;-84
2022/05/18 08:37:24;;;;;;;9.25;4.13;;;25.10;99.90;;;;;;5052496;28;20052;-84
2022/05/18 08:39:53;;;;;;;6.32;4.13;;;25.10;99.90;;;;;;5052341;28;20048;-84
2022/05/18 08:42:20;;;;;;;6.20;4.18;;;25.10;99.90;;;;;;5052030;28;20063;-84
2022/05/18 08:44:47;;;;;;;8.48;4.53;;;25.10;99.90;;;;;;5051386;28;20107;-86
2022/05/18 08:47:27;;;;;;;9.00;5.03;;;25.10;99.90;;;;;;5051764;28;20037;-84
2022/05/18 08:50:00;;;;;;;7.10;5.13;;;25.20;99.90;;;;;;5051918;28;20041;-84
2022/05/18 08:52:38;;;;;;;6.63;5.47;;;25.20;99.90;;;;;;5052139;28;20418;-85
2022/05/18 08:55:24;;;;;;;13.18;6.00;;;25.20;99.90;;;;;;5035120;28;20430;-84
2022/05/18 08:57:53;;;;;;;11.23;5.40;;;25.30;99.90;;;;;;5035520;28;20040;-84
2022/05/18 09:00:24;;;;;;;8.38;5.25;;;25.40;99.90;;;;;;5035732;28;20037;-84
2022/05/18 09:03:02;;;;;;;10.07;5.57;;;25.40;99.90;;;;;;5050035;28;20033;-84
2022/05/18 09:05:41;;;;;;;7.75;5.18;;;25.50;99.90;;;;;;5051495;28;20041;-84
2022/05/18 09:08:18;;;;;;;8.52;5.25;;;25.60;99.90;;;;;;5052391;28;20086;-85
2022/05/18 09:10:55;;;;;;;9.80;4.80;;;25.60;99.90;;;;;;5051623;28;20037;-84
2022/05/18 09:13:21;;;;;;;7.93;5.13;;;25.60;99.90;;;;;;5035323;28;20403;-87
2022/05/18 09:15:53;;;;;;;11.13;4.78;;;25.60;99.90;;;;;;5051095;28;20036;-85
2022/05/18 09:18:26;;;;;;;9.40;5.25;;;25.70;99.90;;;;;;5051756;28;20618;-84
2022/05/18 09:21:09;;;;;;;10.80;5.72;;;25.70;99.90;;;;;;5051417;28;20052;-85
2022/05/18 09:24:23;;;;;;;7.88;5.78;;;25.70;99.90;;;;;;5034834;28;20076;-84
2022/05/18 09:27:20;;;;;;;10.52;6.22;;;25.70;99.90;;;;;;5008207;28;20079;-84
2022/05/18 09:30:23;;;;;;;10.63;6.47;;;25.80;99.90;;;;;;5045827;28;20088;-84
2022/05/18 09:32:58;;;;;;;13.27;6.30;;;25.80;99.90;;;;;;5051256;28;20072;-84
2022/05/18 09:35:58;;;;;;;11.82;6.43;;;25.80;99.90;;;;;;5050595;28;20044;-85
2022/05/18 09:38:59;;;;;;;8.15;5.80;;;25.90;99.90;;;;;;5051141;28;20040;-85
2022/05/18 09:41:30;;;;;;;9.77;5.70;;;25.90;99.90;;;;;;5025991;28;20163;-84
2022/05/18 09:44:07;;;;;;;9.15;5.82;;;26.00;99.90;;;;;;5051091;28;20118;-84
2022/05/18 09:46:34;;;;;;;11.10;5.68;;;26.10;99.90;;;;;;5051554;28;20037;-84
2022/05/18 09:49:24;;;;;;;10.55;6.13;;;26.20;99.90;;;;;;5036128;28;20033;-84
2022/05/18 09:51:50;;;;;;;8.43;5.07;;;26.40;99.90;;;;;;5052755;28;20122;-84
2022/05/18 09:54:15;;;;;;;7.35;5.55;;;26.70;99.90;;;;;;5034305;28;20064;-84
2022/05/18 09:56:52;;;;;;;8.27;4.78;;;26.80;99.90;;;;;;5051907;28;20530;-84
2022/05/18 09:59:25;;;;;;;10.15;5.40;;;26.90;99.90;;;;;;5052648;28;20045;-85
2022/05/18 10:07:30;;;;;;;9.65;5.80;;;27.00;99.70;;;;;;5050291;28;20072;-84
2022/05/18 10:10:12;;;;;;;7.60;5.00;;;26.90;99.50;;;;;;5050455;28;20036;-83
2022/05/18 10:12:46;;;;;;;8.70;5.43;;;27.10;99.40;;;;;;5050116;28;20083;-84
2022/05/18 10:15:32;;;;;;;7.30;5.70;;;27.10;99.40;;;;;;5049217;28;20046;-83
2022/05/18 10:18:09;;;;;;;11.27;6.80;;;27.00;98.90;;;;;;5039349;28;20033;-83
2022/05/18 10:20:36;;;;;;;11.10;6.70;;;27.00;99.00;;;;;;5037671;28;20041;-86
2022/05/18 10:23:03;;;;;;;9.15;5.35;;;27.10;99.10;;;;;;5042058;28;20489;-84
2022/05/18 10:25:42;;;;;;;10.73;5.70;;;27.10;99.10;;;;;;5027514;28;20041;-84
2022/05/18 10:28:34;;;;;;;8.55;4.63;;;27.10;98.70;;;;;;5043720;28;20033;-84
2022/05/18 10:31:04;;;;;;;8.10;5.30;;;27.20;99.50;;;;;;5063749;28;20056;-84
2022/05/18 10:33:35;;;;;;;16.35;8.45;;;27.40;99.20;;;;;;5035345;28;20487;-84
2022/05/18 10:36:13;;;;;;;10.13;7.35;;;27.30;98.90;;;;;;5059996;28;20036;-84
2022/05/18 10:38:53;;;;;;;8.60;6.38;;;27.20;99.30;;;;;;5039439;28;20037;-83
2022/05/18 10:41:24;;;;;;;11.77;8.13;;;27.40;99.50;;;;;;5030751;28;20038;-85
2022/05/18 10:44:13;;;;;;;10.75;7.57;;;27.40;99.00;;;;;;5067294;28;20244;-83
2022/05/18 10:46:43;;;;;;;13.55;7.00;;;27.40;98.40;;;;;;5059523;28;20045;-84
2022/05/18 10:49:20;;;;;;;9.90;5.60;;;27.60;99.40;;;;;;5042597;28;20045;-84
2022/05/18 10:51:46;;;;;;;9.32;6.10;;;27.60;99.40;;;;;;5032388;28;20037;-83
2022/05/18 10:54:33;;;;;;;7.40;5.50;;;27.80;99.60;;;;;;5053187;28;20043;-83
2022/05/18 10:57:11;;;;;;;11.40;6.93;;;28.00;99.60;;;;;;5055039;28;20041;-82
2022/05/18 10:59:49;;;;;;;11.40;6.40;;;27.90;98.20;;;;;;5068589;28;20549;-83
2022/05/18 11:02:29;;;;;;;14.02;6.93;;;28.00;97.30;;;;;;5046558;28;20037;-83
2022/05/18 11:05:23;;;;;;;11.38;5.80;;;28.00;97.40;;;;;;5048847;28;20066;-84
2022/05/18 11:07:49;;;;;;;10.25;6.15;;;28.30;98.00;;;;;;5043893;28;20146;-84
2022/05/18 11:10:15;;;;;;;12.63;6.03;;;28.40;98.30;;;;;;5046949;28;20040;-85
2022/05/18 11:13:01;;;;;;;10.77;6.57;;;28.40;98.30;;;;;;5046904;28;20376;-83
2022/05/18 11:15:41;;;;;;;11.05;6.05;;;28.30;97.70;;;;;;5037917;28;20112;-82
2022/05/18 11:18:40;;;;;;;6.00;3.97;;;28.40;97.70;;;;;;5044541;28;20494;-83
2022/05/18 11:21:16;;;;;;;9.00;5.72;;;28.50;97.50;;;;;;5036478;28;20124;-82
2022/05/18 11:24:23;;;;;;;10.18;5.30;;;28.70;97.20;;;;;;5036917;28;20040;-83
2022/05/18 11:26:54;;;;;;;9.55;4.55;;;28.90;97.20;;;;;;5053116;28;20044;-81
2022/05/18 11:29:29;;;;;;;7.65;4.32;;;29.00;97.10;;;;;;5052712;28;20044;-83
2022/05/18 11:32:03;;;;;;;7.93;5.25;;;29.10;97.30;;;;;;5049414;28;20116;-83
2022/05/18 11:34:59;;;;;;;9.02;4.78;;;29.00;97.10;;;;;;5036560;28;20406;-83
2022/05/18 11:37:36;;;;;;;9.65;6.18;;;29.00;97.90;;;;;;5025680;28;20087;-83
2022/05/18 11:40:08;;;;;;;8.00;5.95;;;28.90;97.80;;;;;;5054486;28;20045;-83
2022/05/18 11:43:25;;;;;;;11.03;5.20;;;28.80;97.30;;;;;;5033484;28;20045;-82
2022/05/18 11:46:12;;;;;;;7.85;5.70;;;28.70;98.00;;;;;;5033392;28;20045;-83
2022/05/18 11:48:54;;;;;;;8.90;4.95;;;28.60;98.20;;;;;;5052513;28;20419;-82
2022/05/18 11:51:35;;;;;;;10.38;6.00;;;28.50;98.70;;;;;;5031171;28;20108;-82
2022/05/18 11:54:21;;;;;;;13.75;6.47;;;28.50;98.40;;;;;;5051424;28;20045;-82
2022/05/18 11:56:55;;;;;;;11.55;7.60;;;28.50;98.40;;;;;;5056423;28;20111;-82
2022/05/18 11:59:45;;;;;;;10.98;7.47;;;28.50;98.50;;;;;;5056171;28;20045;-82
2022/05/18 12:02:14;;;;;;;10.60;7.45;;;28.60;98.80;;;;;;5053740;28;20094;-81
2022/05/18 12:05:24;;;;;;;9.65;7.30;;;28.30;99.10;;;;;;5049651;28;20048;-82
2022/05/18 12:08:46;;;;;;;10.35;6.18;;;28.30;98.50;;;;;;5049969;28;20084;-82
2022/05/18 12:11:22;;;;;;;8.73;6.13;;;28.40;98.10;;;;;;5032846;28;20056;-83
2022/05/18 12:13:48;;;;;;;9.88;6.53;;;28.60;98.80;;;;;;5047845;28;20108;-82
2022/05/18 12:16:31;;;;;;;9.52;5.28;;;28.90;98.40;;;;;;5053830;28;20685;-83
2022/05/18 12:19:16;;;;;;;8.73;5.70;;;29.20;98.70;;;;;;5054137;28;20037;-83
2022/05/18 12:21:47;;;;;;;7.80;5.95;;;29.60;98.50;;;;;;5053782;28;20041;-81
2022/05/18 12:24:15;;;;;;;7.47;5.85;;;29.90;98.40;;;;;;5053165;28;20044;-83
2022/05/18 12:26:44;;;;;;;7.65;6.20;;;29.80;97.90;;;;;;5053759;28;20041;-81
2022/05/18 12:29:11;;;;;;;7.95;5.50;;;30.00;97.90;;;;;;5037091;28;20037;-83
2022/05/18 12:31:38;;;;;;;8.50;6.05;;;30.50;97.80;;;;;;5050962;28;20041;-81
2022/05/18 12:34:20;;;;;;;7.22;5.75;;;30.50;97.80;;;;;;5052657;28;20071;-81
2022/05/18 12:37:08;;;;;;;10.80;6.75;;;30.30;97.70;;;;;;5017954;28;20037;-82
2022/05/18 12:39:44;;;;;;;8.40;5.70;;;29.70;97.10;;;;;;5034252;28;20041;-81
2022/05/18 12:42:22;;;;;;;7.68;5.18;;;29.20;97.10;;;;;;5034161;28;20048;-81
2022/05/18 12:45:21;;;;;;;9.40;5.90;;;29.10;98.00;;;;;;5033207;28;20411;-81
2022/05/18 12:47:52;;;;;;;9.13;7.00;;;28.80;98.40;;;;;;5016684;28;20495;-80
2022/05/18 12:50:49;;;;;;;9.52;7.03;;;28.50;98.60;;;;;;5038075;28;20041;-80
2022/05/18 12:53:21;;;;;;;12.10;8.73;;;28.30;98.50;;;;;;5043875;28;20037;-80
2022/05/18 12:56:03;;;;;;;9.65;7.28;;;28.20;99.20;;;;;;5045654;28;20059;-80
2022/05/18 12:58:37;;;;;;;10.60;7.95;;;28.40;99.20;;;;;;5050490;28;20557;-80
2022/05/18 13:01:12;;;;;;;;;;;28.40;99.10;;;;;;5050389;28;20422;-80
2022/05/18 13:03:52;;;;;;;11.35;9.27;;;28.30;99.70;;;;;;5052996;28;19920;-80
2022/05/18 13:06:43;;;;;;;16.35;9.18;;;28.10;99.40;;;;;;5052494;28;20128;-82
2022/05/18 13:09:21;;;;;;;13.75;9.82;;;27.90;99.50;;;;;;5037510;28;20061;-81
2022/05/18 13:11:54;;;;;;;14.25;10.73;;;27.80;99.20;;;;;;5046903;28;20445;-81
2022/05/18 13:14:34;;;;;;;15.20;11.23;;;27.70;99.90;;;;;;5062173;28;20521;-80
2022/05/18 13:17:06;;;;;;;18.08;11.98;;;27.60;99.90;;;;;;5048254;28;20045;-82